sensor_id;sensor_type;location;lat;lon;timestamp;P1;durP1;ratioP1;P2;durP2;ratioP2
12194;SDS011;27023;42.680;23.132;2022-11-20T00:00:47;1.40;;;1.40;;
12194;SDS011;27023;42.680;23.132;2022-11-20T00:03:14;1.20;;;1.20;;
12194;SDS011;27023;42.680;23.132;2022-11-20T00:05:42;1.60;;;1.60;;
12194;SDS011;27023;42.680;23.132;2022-11-20T00:08:09;1.43;;;1.43;;
12194;SDS011;27023;42.680;23.132;2022-11-20T00:10:36;2.30;;;1.77;;
12194;SDS011;27023;42.680;23.132;2022-11-20T00:13:03;1.27;;;1.27;;
12194;SDS011;27023;42.680;23.132;2022-11-20T00:15:30;1.23;;;1.23;;
12194;SDS011;27023;42.680;23.132;2022-11-20T00:17:57;1.60;;;1.60;;
12194;SDS011;27023;42.680;23.132;2022-11-20T00:20:24;1.70;;;1.70;;
12194;SDS011;27023;42.680;23.132;2022-11-20T00:22:52;2.67;;;2.50;;
12194;SDS011;27023;42.680;23.132;2022-11-20T00:25:19;1.90;;;1.90;;
12194;SDS011;27023;42.680;23.132;2022-11-20T00:27:45;1.47;;;1.47;;
12194;SDS011;27023;42.680;23.132;2022-11-20T00:32:40;1.63;;;1.63;;
12194;SDS011;27023;42.680;23.132;2022-11-20T00:35:07;1.40;;;1.40;;
12194;SDS011;27023;42.680;23.132;2022-11-20T00:37:33;1.80;;;1.80;;
12194;SDS011;27023;42.680;23.132;2022-11-20T00:40:01;1.47;;;1.47;;
12194;SDS011;27023;42.680;23.132;2022-11-20T00:42:28;2.50;;;2.40;;
12194;SDS011;27023;42.680;23.132;2022-11-20T00:44:57;2.07;;;2.07;;
12194;SDS011;27023;42.680;23.132;2022-11-20T00:47:24;2.10;;;2.10;;
12194;SDS011;27023;42.680;23.132;2022-11-20T00:49:51;1.70;;;1.70;;
12194;SDS011;27023;42.680;23.132;2022-11-20T00:52:17;1.73;;;1.73;;
12194;SDS011;27023;42.680;23.132;2022-11-20T00:54:44;1.87;;;1.87;;
12194;SDS011;27023;42.680;23.132;2022-11-20T00:57:12;1.73;;;1.73;;
12194;SDS011;27023;42.680;23.132;2022-11-20T00:59:39;1.83;;;1.83;;
12194;SDS011;27023;42.680;23.132;2022-11-20T01:02:05;1.90;;;1.90;;
12194;SDS011;27023;42.680;23.132;2022-11-20T01:04:32;1.50;;;1.50;;
12194;SDS011;27023;42.680;23.132;2022-11-20T01:06:59;1.60;;;1.60;;
12194;SDS011;27023;42.680;23.132;2022-11-20T01:09:25;1.90;;;1.90;;
12194;SDS011;27023;42.680;23.132;2022-11-20T01:11:52;2.43;;;2.43;;
12194;SDS011;27023;42.680;23.132;2022-11-20T01:14:20;1.60;;;1.60;;
12194;SDS011;27023;42.680;23.132;2022-11-20T01:16:47;1.73;;;1.73;;
12194;SDS011;27023;42.680;23.132;2022-11-20T01:19:16;1.37;;;1.37;;
12194;SDS011;27023;42.680;23.132;2022-11-20T01:21:45;2.37;;;2.37;;
12194;SDS011;27023;42.680;23.132;2022-11-20T01:24:14;1.73;;;1.73;;
12194;SDS011;27023;42.680;23.132;2022-11-20T01:26:43;1.73;;;1.73;;
12194;SDS011;27023;42.680;23.132;2022-11-20T01:29:12;2.00;;;2.00;;
12194;SDS011;27023;42.680;23.132;2022-11-20T01:31:42;1.77;;;1.77;;
12194;SDS011;27023;42.680;23.132;2022-11-20T01:34:10;1.50;;;1.50;;
12194;SDS011;27023;42.680;23.132;2022-11-20T01:36:39;2.33;;;2.33;;
12194;SDS011;27023;42.680;23.132;2022-11-20T01:39:09;1.63;;;1.63;;
12194;SDS011;27023;42.680;23.132;2022-11-20T01:41:38;1.90;;;1.90;;
12194;SDS011;27023;42.680;23.132;2022-11-20T01:44:39;2.10;;;2.10;;
12194;SDS011;27023;42.680;23.132;2022-11-20T01:47:16;1.77;;;1.73;;
12194;SDS011;27023;42.680;23.132;2022-11-20T01:49:46;1.83;;;1.83;;
12194;SDS011;27023;42.680;23.132;2022-11-20T01:52:17;1.80;;;1.80;;
12194;SDS011;27023;42.680;23.132;2022-11-20T01:54:47;1.87;;;1.87;;
12194;SDS011;27023;42.680;23.132;2022-11-20T01:57:16;3.03;;;2.87;;
12194;SDS011;27023;42.680;23.132;2022-11-20T01:59:47;1.73;;;1.73;;
12194;SDS011;27023;42.680;23.132;2022-11-20T02:02:20;2.07;;;2.07;;
12194;SDS011;27023;42.680;23.132;2022-11-20T02:04:47;1.60;;;1.60;;
12194;SDS011;27023;42.680;23.132;2022-11-20T02:07:17;1.63;;;1.63;;
12194;SDS011;27023;42.680;23.132;2022-11-20T02:09:45;1.50;;;1.50;;
12194;SDS011;27023;42.680;23.132;2022-11-20T02:12:12;1.57;;;1.57;;
12194;SDS011;27023;42.680;23.132;2022-11-20T02:14:58;1.70;;;1.70;;
12194;SDS011;27023;42.680;23.132;2022-11-20T02:17:25;1.83;;;1.83;;
12194;SDS011;27023;42.680;23.132;2022-11-20T02:19:53;2.23;;;2.13;;
12194;SDS011;27023;42.680;23.132;2022-11-20T02:22:21;2.30;;;2.20;;
12194;SDS011;27023;42.680;23.132;2022-11-20T02:24:56;1.57;;;1.57;;
12194;SDS011;27023;42.680;23.132;2022-11-20T02:27:25;1.50;;;1.50;;
12194;SDS011;27023;42.680;23.132;2022-11-20T02:29:54;1.20;;;1.20;;
12194;SDS011;27023;42.680;23.132;2022-11-20T02:32:25;1.70;;;1.70;;
12194;SDS011;27023;42.680;23.132;2022-11-20T02:34:54;1.57;;;1.57;;
12194;SDS011;27023;42.680;23.132;2022-11-20T02:37:21;1.30;;;1.30;;
12194;SDS011;27023;42.680;23.132;2022-11-20T02:39:49;2.07;;;2.07;;
12194;SDS011;27023;42.680;23.132;2022-11-20T02:42:19;1.37;;;1.37;;
12194;SDS011;27023;42.680;23.132;2022-11-20T02:44:46;1.33;;;1.33;;
12194;SDS011;27023;42.680;23.132;2022-11-20T02:47:12;1.40;;;1.40;;
12194;SDS011;27023;42.680;23.132;2022-11-20T02:49:39;1.47;;;1.47;;
12194;SDS011;27023;42.680;23.132;2022-11-20T02:52:06;1.37;;;1.37;;
12194;SDS011;27023;42.680;23.132;2022-11-20T02:54:33;1.00;;;1.00;;
12194;SDS011;27023;42.680;23.132;2022-11-20T02:56:59;1.27;;;1.27;;
12194;SDS011;27023;42.680;23.132;2022-11-20T02:59:27;1.00;;;1.00;;
12194;SDS011;27023;42.680;23.132;2022-11-20T03:01:54;1.63;;;1.63;;
12194;SDS011;27023;42.680;23.132;2022-11-20T03:04:21;1.17;;;1.17;;
12194;SDS011;27023;42.680;23.132;2022-11-20T03:06:47;1.83;;;1.83;;
12194;SDS011;27023;42.680;23.132;2022-11-20T03:09:14;1.30;;;1.30;;
12194;SDS011;27023;42.680;23.132;2022-11-20T03:11:41;1.53;;;1.53;;
12194;SDS011;27023;42.680;23.132;2022-11-20T03:14:07;1.57;;;1.57;;
12194;SDS011;27023;42.680;23.132;2022-11-20T03:16:35;1.37;;;1.37;;
12194;SDS011;27023;42.680;23.132;2022-11-20T03:19:02;2.27;;;2.27;;
12194;SDS011;27023;42.680;23.132;2022-11-20T03:21:29;1.70;;;1.70;;
12194;SDS011;27023;42.680;23.132;2022-11-20T03:23:55;1.60;;;1.60;;
12194;SDS011;27023;42.680;23.132;2022-11-20T03:26:23;1.93;;;1.93;;
12194;SDS011;27023;42.680;23.132;2022-11-20T03:28:52;1.60;;;1.60;;
12194;SDS011;27023;42.680;23.132;2022-11-20T03:31:21;1.90;;;1.90;;
12194;SDS011;27023;42.680;23.132;2022-11-20T03:33:50;2.57;;;2.30;;
12194;SDS011;27023;42.680;23.132;2022-11-20T03:36:17;1.50;;;1.50;;
12194;SDS011;27023;42.680;23.132;2022-11-20T03:38:45;1.93;;;1.93;;
12194;SDS011;27023;42.680;23.132;2022-11-20T03:41:13;1.77;;;1.77;;
12194;SDS011;27023;42.680;23.132;2022-11-20T03:43:41;1.50;;;1.50;;
12194;SDS011;27023;42.680;23.132;2022-11-20T03:46:08;1.60;;;1.60;;
12194;SDS011;27023;42.680;23.132;2022-11-20T03:48:35;1.90;;;1.90;;
12194;SDS011;27023;42.680;23.132;2022-11-20T03:51:10;1.27;;;1.27;;
12194;SDS011;27023;42.680;23.132;2022-11-20T03:53:38;1.83;;;1.73;;
12194;SDS011;27023;42.680;23.132;2022-11-20T03:56:06;1.27;;;1.27;;
12194;SDS011;27023;42.680;23.132;2022-11-20T03:58:33;1.67;;;1.67;;
12194;SDS011;27023;42.680;23.132;2022-11-20T04:01:05;1.57;;;1.57;;
12194;SDS011;27023;42.680;23.132;2022-11-20T04:03:33;1.53;;;1.53;;
12194;SDS011;27023;42.680;23.132;2022-11-20T04:06:03;1.77;;;1.73;;
12194;SDS011;27023;42.680;23.132;2022-11-20T04:08:32;1.70;;;1.70;;
12194;SDS011;27023;42.680;23.132;2022-11-20T04:11:09;1.60;;;1.60;;
12194;SDS011;27023;42.680;23.132;2022-11-20T04:13:37;1.47;;;1.47;;
12194;SDS011;27023;42.680;23.132;2022-11-20T04:16:04;1.70;;;1.70;;
12194;SDS011;27023;42.680;23.132;2022-11-20T04:18:32;2.10;;;2.00;;
12194;SDS011;27023;42.680;23.132;2022-11-20T04:20:58;2.40;;;2.40;;
12194;SDS011;27023;42.680;23.132;2022-11-20T04:23:26;2.40;;;2.40;;
12194;SDS011;27023;42.680;23.132;2022-11-20T04:25:54;1.50;;;1.50;;
12194;SDS011;27023;42.680;23.132;2022-11-20T04:28:21;3.00;;;2.83;;
12194;SDS011;27023;42.680;23.132;2022-11-20T04:30:47;1.93;;;1.93;;
12194;SDS011;27023;42.680;23.132;2022-11-20T04:33:14;1.80;;;1.70;;
12194;SDS011;27023;42.680;23.132;2022-11-20T04:35:41;1.80;;;1.80;;
12194;SDS011;27023;42.680;23.132;2022-11-20T04:38:08;1.90;;;1.90;;
12194;SDS011;27023;42.680;23.132;2022-11-20T04:40:34;1.87;;;1.87;;
12194;SDS011;27023;42.680;23.132;2022-11-20T04:43:02;1.80;;;1.80;;
12194;SDS011;27023;42.680;23.132;2022-11-20T04:45:29;1.80;;;1.80;;
12194;SDS011;27023;42.680;23.132;2022-11-20T04:47:55;2.27;;;2.17;;
12194;SDS011;27023;42.680;23.132;2022-11-20T04:50:22;1.90;;;1.90;;
12194;SDS011;27023;42.680;23.132;2022-11-20T04:52:49;1.80;;;1.80;;
12194;SDS011;27023;42.680;23.132;2022-11-20T04:55:16;1.80;;;1.80;;
12194;SDS011;27023;42.680;23.132;2022-11-20T04:57:42;1.80;;;1.80;;
12194;SDS011;27023;42.680;23.132;2022-11-20T05:00:11;1.53;;;1.53;;
12194;SDS011;27023;42.680;23.132;2022-11-20T05:02:38;1.30;;;1.30;;
12194;SDS011;27023;42.680;23.132;2022-11-20T05:05:05;3.80;;;2.20;;
12194;SDS011;27023;42.680;23.132;2022-11-20T05:07:32;1.47;;;1.47;;
12194;SDS011;27023;42.680;23.132;2022-11-20T05:09:59;3.27;;;2.47;;
12194;SDS011;27023;42.680;23.132;2022-11-20T05:12:26;1.63;;;1.63;;
12194;SDS011;27023;42.680;23.132;2022-11-20T05:14:53;1.43;;;1.43;;
12194;SDS011;27023;42.680;23.132;2022-11-20T05:17:21;11.30;;;2.20;;
12194;SDS011;27023;42.680;23.132;2022-11-20T05:19:48;1.50;;;1.50;;
12194;SDS011;27023;42.680;23.132;2022-11-20T05:22:15;1.73;;;1.73;;
12194;SDS011;27023;42.680;23.132;2022-11-20T05:24:41;7.40;;;7.20;;
12194;SDS011;27023;42.680;23.132;2022-11-20T05:27:08;3.70;;;3.70;;
12194;SDS011;27023;42.680;23.132;2022-11-20T05:29:35;14.17;;;13.67;;
12194;SDS011;27023;42.680;23.132;2022-11-20T05:32:01;9.87;;;9.57;;
12194;SDS011;27023;42.680;23.132;2022-11-20T05:34:29;15.40;;;14.90;;
12194;SDS011;27023;42.680;23.132;2022-11-20T05:36:56;13.47;;;13.07;;
12194;SDS011;27023;42.680;23.132;2022-11-20T05:39:23;12.97;;;12.50;;
12194;SDS011;27023;42.680;23.132;2022-11-20T05:41:49;13.80;;;13.33;;
12194;SDS011;27023;42.680;23.132;2022-11-20T05:44:36;13.30;;;12.90;;
12194;SDS011;27023;42.680;23.132;2022-11-20T05:47:03;11.63;;;11.27;;
12194;SDS011;27023;42.680;23.132;2022-11-20T05:49:31;2.83;;;2.50;;
12194;SDS011;27023;42.680;23.132;2022-11-20T05:51:58;10.17;;;9.87;;
12194;SDS011;27023;42.680;23.132;2022-11-20T05:54:25;12.60;;;12.20;;
12194;SDS011;27023;42.680;23.132;2022-11-20T05:56:52;7.47;;;7.30;;
12194;SDS011;27023;42.680;23.132;2022-11-20T05:59:19;6.17;;;6.03;;
12194;SDS011;27023;42.680;23.132;2022-11-20T06:01:45;11.40;;;11.10;;
12194;SDS011;27023;42.680;23.132;2022-11-20T06:04:12;8.07;;;7.87;;
12194;SDS011;27023;42.680;23.132;2022-11-20T06:06:40;8.27;;;8.07;;
12194;SDS011;27023;42.680;23.132;2022-11-20T06:09:07;7.77;;;7.57;;
12194;SDS011;27023;42.680;23.132;2022-11-20T06:11:34;9.43;;;9.10;;
12194;SDS011;27023;42.680;23.132;2022-11-20T06:14:00;2.93;;;2.93;;
12194;SDS011;27023;42.680;23.132;2022-11-20T06:16:27;1.93;;;1.93;;
12194;SDS011;27023;42.680;23.132;2022-11-20T06:18:54;2.03;;;2.03;;
12194;SDS011;27023;42.680;23.132;2022-11-20T06:21:21;2.00;;;2.00;;
12194;SDS011;27023;42.680;23.132;2022-11-20T06:23:50;2.33;;;2.33;;
12194;SDS011;27023;42.680;23.132;2022-11-20T06:26:19;1.80;;;1.80;;
12194;SDS011;27023;42.680;23.132;2022-11-20T06:28:47;1.83;;;1.83;;
12194;SDS011;27023;42.680;23.132;2022-11-20T06:31:14;2.97;;;2.87;;
12194;SDS011;27023;42.680;23.132;2022-11-20T06:33:42;2.30;;;2.30;;
12194;SDS011;27023;42.680;23.132;2022-11-20T06:36:10;2.67;;;2.67;;
12194;SDS011;27023;42.680;23.132;2022-11-20T06:38:38;2.30;;;2.20;;
12194;SDS011;27023;42.680;23.132;2022-11-20T06:41:08;2.00;;;2.00;;
12194;SDS011;27023;42.680;23.132;2022-11-20T06:43:37;2.17;;;2.17;;
12194;SDS011;27023;42.680;23.132;2022-11-20T06:46:04;1.87;;;1.87;;
12194;SDS011;27023;42.680;23.132;2022-11-20T06:48:31;2.43;;;2.33;;
12194;SDS011;27023;42.680;23.132;2022-11-20T06:50:58;2.80;;;2.67;;
12194;SDS011;27023;42.680;23.132;2022-11-20T06:53:25;2.13;;;2.13;;
12194;SDS011;27023;42.680;23.132;2022-11-20T06:55:51;3.23;;;3.03;;
12194;SDS011;27023;42.680;23.132;2022-11-20T06:58:23;2.07;;;2.07;;
12194;SDS011;27023;42.680;23.132;2022-11-20T07:00:52;1.73;;;1.73;;
12194;SDS011;27023;42.680;23.132;2022-11-20T07:03:18;1.97;;;1.97;;
12194;SDS011;27023;42.680;23.132;2022-11-20T07:05:45;1.67;;;1.67;;
12194;SDS011;27023;42.680;23.132;2022-11-20T07:08:12;2.03;;;2.00;;
12194;SDS011;27023;42.680;23.132;2022-11-20T07:10:39;2.50;;;2.50;;
12194;SDS011;27023;42.680;23.132;2022-11-20T07:13:05;2.30;;;2.20;;
12194;SDS011;27023;42.680;23.132;2022-11-20T07:15:34;1.70;;;1.70;;
12194;SDS011;27023;42.680;23.132;2022-11-20T07:18:01;2.00;;;1.90;;
12194;SDS011;27023;42.680;23.132;2022-11-20T07:20:28;2.83;;;2.73;;
12194;SDS011;27023;42.680;23.132;2022-11-20T07:22:55;2.73;;;2.73;;
12194;SDS011;27023;42.680;23.132;2022-11-20T07:25:22;2.13;;;2.13;;
12194;SDS011;27023;42.680;23.132;2022-11-20T07:27:49;5.43;;;5.33;;
12194;SDS011;27023;42.680;23.132;2022-11-20T07:30:15;6.63;;;6.43;;
12194;SDS011;27023;42.680;23.132;2022-11-20T07:32:43;14.93;;;14.43;;
12194;SDS011;27023;42.680;23.132;2022-11-20T07:35:12;5.33;;;5.23;;
12194;SDS011;27023;42.680;23.132;2022-11-20T07:37:39;5.63;;;5.53;;
12194;SDS011;27023;42.680;23.132;2022-11-20T07:40:06;12.30;;;11.90;;
12194;SDS011;27023;42.680;23.132;2022-11-20T07:42:33;23.37;;;22.30;;
12194;SDS011;27023;42.680;23.132;2022-11-20T07:45:00;21.43;;;20.53;;
12194;SDS011;27023;42.680;23.132;2022-11-20T07:47:26;23.70;;;22.53;;
12194;SDS011;27023;42.680;23.132;2022-11-20T07:49:54;18.90;;;18.13;;
12194;SDS011;27023;42.680;23.132;2022-11-20T07:52:21;18.87;;;18.13;;
12194;SDS011;27023;42.680;23.132;2022-11-20T07:54:48;13.93;;;13.43;;
12194;SDS011;27023;42.680;23.132;2022-11-20T07:57:15;13.37;;;12.87;;
12194;SDS011;27023;42.680;23.132;2022-11-20T07:59:42;6.03;;;5.87;;
12194;SDS011;27023;42.680;23.132;2022-11-20T08:02:10;14.93;;;14.37;;
12194;SDS011;27023;42.680;23.132;2022-11-20T08:04:37;13.50;;;13.00;;
12194;SDS011;27023;42.680;23.132;2022-11-20T08:07:05;11.67;;;11.27;;
12194;SDS011;27023;42.680;23.132;2022-11-20T08:09:31;19.03;;;18.30;;
12194;SDS011;27023;42.680;23.132;2022-11-20T08:11:58;1.73;;;1.73;;
12194;SDS011;27023;42.680;23.132;2022-11-20T08:14:51;1.50;;;1.50;;
12194;SDS011;27023;42.680;23.132;2022-11-20T08:17:17;1.30;;;1.30;;
12194;SDS011;27023;42.680;23.132;2022-11-20T08:19:44;1.63;;;1.63;;
12194;SDS011;27023;42.680;23.132;2022-11-20T08:22:12;1.87;;;1.87;;
12194;SDS011;27023;42.680;23.132;2022-11-20T08:24:39;5.07;;;4.97;;
12194;SDS011;27023;42.680;23.132;2022-11-20T08:27:05;10.83;;;5.80;;
12194;SDS011;27023;42.680;23.132;2022-11-20T08:29:32;10.40;;;10.10;;
12194;SDS011;27023;42.680;23.132;2022-11-20T08:31:59;9.90;;;9.60;;
12194;SDS011;27023;42.680;23.132;2022-11-20T08:34:25;10.70;;;10.10;;
12194;SDS011;27023;42.680;23.132;2022-11-20T08:36:52;11.77;;;11.37;;
12194;SDS011;27023;42.680;23.132;2022-11-20T08:39:20;18.20;;;17.50;;
12194;SDS011;27023;42.680;23.132;2022-11-20T08:41:47;12.93;;;12.53;;
12194;SDS011;27023;42.680;23.132;2022-11-20T08:44:13;14.50;;;14.00;;
12194;SDS011;27023;42.680;23.132;2022-11-20T08:46:40;14.47;;;13.97;;
12194;SDS011;27023;42.680;23.132;2022-11-20T08:49:10;9.77;;;9.53;;
12194;SDS011;27023;42.680;23.132;2022-11-20T08:51:37;8.27;;;8.07;;
12194;SDS011;27023;42.680;23.132;2022-11-20T08:54:04;8.73;;;8.53;;
12194;SDS011;27023;42.680;23.132;2022-11-20T08:56:33;10.43;;;10.13;;
12194;SDS011;27023;42.680;23.132;2022-11-20T08:59:00;4.57;;;4.47;;
12194;SDS011;27023;42.680;23.132;2022-11-20T09:01:27;9.20;;;8.97;;
12194;SDS011;27023;42.680;23.132;2022-11-20T09:03:54;16.93;;;16.13;;
12194;SDS011;27023;42.680;23.132;2022-11-20T09:06:21;16.17;;;15.57;;
12194;SDS011;27023;42.680;23.132;2022-11-20T09:08:51;11.50;;;11.20;;
12194;SDS011;27023;42.680;23.132;2022-11-20T09:11:18;12.40;;;12.00;;
12194;SDS011;27023;42.680;23.132;2022-11-20T09:13:46;31.90;;;30.47;;
12194;SDS011;27023;42.680;23.132;2022-11-20T09:16:12;34.43;;;32.83;;
12194;SDS011;27023;42.680;23.132;2022-11-20T09:18:39;27.87;;;26.67;;
12194;SDS011;27023;42.680;23.132;2022-11-20T09:21:06;34.33;;;32.73;;
12194;SDS011;27023;42.680;23.132;2022-11-20T09:23:36;23.53;;;22.53;;
12194;SDS011;27023;42.680;23.132;2022-11-20T09:26:04;17.60;;;16.93;;
12194;SDS011;27023;42.680;23.132;2022-11-20T09:28:32;14.63;;;14.13;;
12194;SDS011;27023;42.680;23.132;2022-11-20T09:31:00;26.53;;;25.37;;
12194;SDS011;27023;42.680;23.132;2022-11-20T09:33:31;31.07;;;29.37;;
12194;SDS011;27023;42.680;23.132;2022-11-20T09:35:58;10.03;;;9.50;;
12194;SDS011;27023;42.680;23.132;2022-11-20T09:38:24;5.83;;;5.70;;
12194;SDS011;27023;42.680;23.132;2022-11-20T09:40:53;1.70;;;1.70;;
12194;SDS011;27023;42.680;23.132;2022-11-20T09:43:26;1.83;;;1.83;;
12194;SDS011;27023;42.680;23.132;2022-11-20T09:46:03;11.70;;;11.23;;
12194;SDS011;27023;42.680;23.132;2022-11-20T09:51:30;15.10;;;14.57;;
12194;SDS011;27023;42.680;23.132;2022-11-20T09:54:16;22.07;;;21.17;;
12194;SDS011;27023;42.680;23.132;2022-11-20T09:56:44;30.27;;;28.90;;
12194;SDS011;27023;42.680;23.132;2022-11-20T09:59:19;28.20;;;26.97;;
12194;SDS011;27023;42.680;23.132;2022-11-20T10:01:56;29.37;;;28.07;;
12194;SDS011;27023;42.680;23.132;2022-11-20T10:04:25;23.57;;;22.57;;
12194;SDS011;27023;42.680;23.132;2022-11-20T10:06:53;29.17;;;27.87;;
12194;SDS011;27023;42.680;23.132;2022-11-20T10:09:25;20.33;;;19.50;;
12194;SDS011;27023;42.680;23.132;2022-11-20T10:12:01;17.50;;;16.83;;
12194;SDS011;27023;42.680;23.132;2022-11-20T10:14:40;15.07;;;14.57;;
12194;SDS011;27023;42.680;23.132;2022-11-20T10:17:22;16.80;;;16.20;;
12194;SDS011;27023;42.680;23.132;2022-11-20T10:20:14;20.50;;;19.67;;
12194;SDS011;27023;42.680;23.132;2022-11-20T10:22:52;22.10;;;21.10;;
12194;SDS011;27023;42.680;23.132;2022-11-20T10:25:38;25.73;;;24.63;;
12194;SDS011;27023;42.680;23.132;2022-11-20T10:28:17;18.33;;;17.63;;
12194;SDS011;27023;42.680;23.132;2022-11-20T10:30:56;1.77;;;1.77;;
12194;SDS011;27023;42.680;23.132;2022-11-20T10:33:29;9.70;;;9.37;;
12194;SDS011;27023;42.680;23.132;2022-11-20T10:36:04;8.93;;;8.60;;
12194;SDS011;27023;42.680;23.132;2022-11-20T10:38:35;11.50;;;11.07;;
12194;SDS011;27023;42.680;23.132;2022-11-20T10:41:05;14.23;;;13.70;;
12194;SDS011;27023;42.680;23.132;2022-11-20T10:43:52;14.27;;;13.77;;
12194;SDS011;27023;42.680;23.132;2022-11-20T10:46:25;13.63;;;13.13;;
12194;SDS011;27023;42.680;23.132;2022-11-20T10:49:09;23.43;;;22.43;;
12194;SDS011;27023;42.680;23.132;2022-11-20T10:51:40;41.10;;;39.10;;
12194;SDS011;27023;42.680;23.132;2022-11-20T10:54:19;40.97;;;39.03;;
12194;SDS011;27023;42.680;23.132;2022-11-20T10:56:55;52.97;;;50.23;;
12194;SDS011;27023;42.680;23.132;2022-11-20T10:59:35;35.50;;;33.87;;
12194;SDS011;27023;42.680;23.132;2022-11-20T11:02:16;37.90;;;36.13;;
12194;SDS011;27023;42.680;23.132;2022-11-20T11:04:46;43.07;;;41.03;;
12194;SDS011;27023;42.680;23.132;2022-11-20T11:07:15;71.20;;;67.70;;
12194;SDS011;27023;42.680;23.132;2022-11-20T11:09:46;52.30;;;49.73;;
12194;SDS011;27023;42.680;23.132;2022-11-20T11:12:14;49.63;;;47.23;;
12194;SDS011;27023;42.680;23.132;2022-11-20T11:14:42;72.63;;;69.03;;
12194;SDS011;27023;42.680;23.132;2022-11-20T11:17:21;58.00;;;55.13;;
12194;SDS011;27023;42.680;23.132;2022-11-20T11:20:00;34.83;;;33.23;;
12194;SDS011;27023;42.680;23.132;2022-11-20T11:22:28;31.67;;;30.23;;
12194;SDS011;27023;42.680;23.132;2022-11-20T11:24:56;29.13;;;27.87;;
12194;SDS011;27023;42.680;23.132;2022-11-20T11:27:23;46.70;;;44.40;;
12194;SDS011;27023;42.680;23.132;2022-11-20T11:29:50;43.07;;;41.03;;
12194;SDS011;27023;42.680;23.132;2022-11-20T11:32:28;40.73;;;38.83;;
12194;SDS011;27023;42.680;23.132;2022-11-20T11:35:00;47.97;;;45.70;;
12194;SDS011;27023;42.680;23.132;2022-11-20T11:37:29;40.90;;;39.00;;
12194;SDS011;27023;42.680;23.132;2022-11-20T11:40:00;36.77;;;35.07;;
12194;SDS011;27023;42.680;23.132;2022-11-20T11:42:28;37.27;;;35.53;;
12194;SDS011;27023;42.680;23.132;2022-11-20T11:44:56;35.73;;;34.10;;
12194;SDS011;27023;42.680;23.132;2022-11-20T11:47:33;34.17;;;32.63;;
12194;SDS011;27023;42.680;23.132;2022-11-20T11:50:13;47.23;;;44.93;;
12194;SDS011;27023;42.680;23.132;2022-11-20T11:52:44;49.33;;;46.93;;
12194;SDS011;27023;42.680;23.132;2022-11-20T11:55:15;52.53;;;49.93;;
12194;SDS011;27023;42.680;23.132;2022-11-20T11:57:49;54.83;;;52.13;;
12194;SDS011;27023;42.680;23.132;2022-11-20T12:00:21;54.53;;;51.87;;
12194;SDS011;27023;42.680;23.132;2022-11-20T12:02:52;47.73;;;45.40;;
12194;SDS011;27023;42.680;23.132;2022-11-20T12:05:25;48.63;;;46.27;;
12194;SDS011;27023;42.680;23.132;2022-11-20T12:07:56;47.83;;;45.53;;
12194;SDS011;27023;42.680;23.132;2022-11-20T12:10:34;47.87;;;45.57;;
12194;SDS011;27023;42.680;23.132;2022-11-20T12:13:11;42.43;;;40.43;;
12194;SDS011;27023;42.680;23.132;2022-11-20T12:15:46;41.00;;;39.00;;
12194;SDS011;27023;42.680;23.132;2022-11-20T12:18:14;31.77;;;30.37;;
12194;SDS011;27023;42.680;23.132;2022-11-20T12:20:45;36.43;;;34.73;;
12194;SDS011;27023;42.680;23.132;2022-11-20T12:23:21;38.10;;;36.30;;
12194;SDS011;27023;42.680;23.132;2022-11-20T12:25:55;49.77;;;47.37;;
12194;SDS011;27023;42.680;23.132;2022-11-20T12:31:24;37.77;;;36.00;;
12194;SDS011;27023;42.680;23.132;2022-11-20T12:34:08;35.50;;;33.90;;
12194;SDS011;27023;42.680;23.132;2022-11-20T12:36:48;33.90;;;32.37;;
12194;SDS011;27023;42.680;23.132;2022-11-20T12:39:29;28.20;;;26.97;;
12194;SDS011;27023;42.680;23.132;2022-11-20T12:42:04;30.30;;;28.97;;
12194;SDS011;27023;42.680;23.132;2022-11-20T12:45:14;31.27;;;29.87;;
12194;SDS011;27023;42.680;23.132;2022-11-20T12:51:01;28.47;;;27.23;;
12194;SDS011;27023;42.680;23.132;2022-11-20T12:53:52;32.57;;;31.10;;
12194;SDS011;27023;42.680;23.132;2022-11-20T12:56:35;29.97;;;28.67;;
12194;SDS011;27023;42.680;23.132;2022-11-20T12:59:20;32.43;;;30.97;;
12194;SDS011;27023;42.680;23.132;2022-11-20T13:01:57;25.97;;;24.83;;
12194;SDS011;27023;42.680;23.132;2022-11-20T13:04:35;26.43;;;25.30;;
12194;SDS011;27023;42.680;23.132;2022-11-20T13:07:14;30.60;;;29.23;;
12194;SDS011;27023;42.680;23.132;2022-11-20T13:09:44;28.07;;;26.87;;
12194;SDS011;27023;42.680;23.132;2022-11-20T13:12:13;25.90;;;24.80;;
12194;SDS011;27023;42.680;23.132;2022-11-20T13:14:46;28.77;;;27.50;;
12194;SDS011;27023;42.680;23.132;2022-11-20T13:17:21;25.23;;;24.17;;
12194;SDS011;27023;42.680;23.132;2022-11-20T13:19:53;27.10;;;25.93;;
12194;SDS011;27023;42.680;23.132;2022-11-20T13:22:25;26.80;;;25.67;;
12194;SDS011;27023;42.680;23.132;2022-11-20T13:24:54;23.17;;;22.23;;
12194;SDS011;27023;42.680;23.132;2022-11-20T13:27:21;21.37;;;20.53;;
12194;SDS011;27023;42.680;23.132;2022-11-20T13:30:02;21.77;;;20.90;;
12194;SDS011;27023;42.680;23.132;2022-11-20T13:32:47;20.80;;;20.00;;
12194;SDS011;27023;42.680;23.132;2022-11-20T13:35:23;23.37;;;22.40;;
12194;SDS011;27023;42.680;23.132;2022-11-20T13:37:58;21.67;;;20.80;;
12194;SDS011;27023;42.680;23.132;2022-11-20T13:40:28;19.67;;;18.90;;
12194;SDS011;27023;42.680;23.132;2022-11-20T13:42:55;24.50;;;23.47;;
12194;SDS011;27023;42.680;23.132;2022-11-20T13:45:28;16.00;;;15.40;;
12194;SDS011;27023;42.680;23.132;2022-11-20T13:47:56;22.30;;;21.40;;
12194;SDS011;27023;42.680;23.132;2022-11-20T13:50:31;16.03;;;15.43;;
12194;SDS011;27023;42.680;23.132;2022-11-20T13:53:12;17.07;;;16.47;;
12194;SDS011;27023;42.680;23.132;2022-11-20T13:55:54;18.03;;;17.33;;
12194;SDS011;27023;42.680;23.132;2022-11-20T13:58:27;16.70;;;16.10;;
12194;SDS011;27023;42.680;23.132;2022-11-20T14:01:08;16.83;;;16.23;;
12194;SDS011;27023;42.680;23.132;2022-11-20T14:03:37;19.30;;;18.50;;
12194;SDS011;27023;42.680;23.132;2022-11-20T14:06:05;15.57;;;15.00;;
12194;SDS011;27023;42.680;23.132;2022-11-20T14:08:40;13.80;;;13.30;;
12194;SDS011;27023;42.680;23.132;2022-11-20T14:11:15;16.27;;;15.67;;
12194;SDS011;27023;42.680;23.132;2022-11-20T14:13:52;14.77;;;14.27;;
12194;SDS011;27023;42.680;23.132;2022-11-20T14:16:23;12.53;;;12.13;;
12194;SDS011;27023;42.680;23.132;2022-11-20T14:18:51;12.97;;;12.57;;
12194;SDS011;27023;42.680;23.132;2022-11-20T14:21:22;14.03;;;13.53;;
12194;SDS011;27023;42.680;23.132;2022-11-20T14:23:52;14.17;;;13.67;;
12194;SDS011;27023;42.680;23.132;2022-11-20T14:26:21;15.13;;;14.60;;
12194;SDS011;27023;42.680;23.132;2022-11-20T14:28:48;13.47;;;13.03;;
12194;SDS011;27023;42.680;23.132;2022-11-20T14:31:18;15.67;;;15.07;;
12194;SDS011;27023;42.680;23.132;2022-11-20T14:33:50;13.97;;;13.47;;
12194;SDS011;27023;42.680;23.132;2022-11-20T14:36:20;13.20;;;12.80;;
12194;SDS011;27023;42.680;23.132;2022-11-20T14:38:48;14.67;;;14.17;;
12194;SDS011;27023;42.680;23.132;2022-11-20T14:41:16;13.13;;;12.73;;
12194;SDS011;27023;42.680;23.132;2022-11-20T14:43:46;15.07;;;14.57;;
12194;SDS011;27023;42.680;23.132;2022-11-20T14:46:16;17.27;;;16.67;;
12194;SDS011;27023;42.680;23.132;2022-11-20T14:48:44;17.60;;;16.93;;
12194;SDS011;27023;42.680;23.132;2022-11-20T14:51:23;16.83;;;16.23;;